Grand Strand Airport
KCRE : now visible

Airfield :











YOU CAN JOIN US ON...

 
LOGIN :

Register | Disclaimer

   EN    FR    IT 

 









Legend :    VFR   Marginal VFR   IFR   Intensive IFR   Very Intensive IFR
Visi :
Ceiling :
>= 8 km
>= 3000ft
5 to 8 km
1000 to 3000 ft
1500m to 5 km
500 to 1000 ft
800 to 1500m
200 to 500 ft
< 800m
< 200 ft
Symbols :   Thunderstorms  Fog  Heavy snow  Heavy precipitations  Wind > 20 kt






- Airport Elevation : 32 ft


KCRE - Grand Strand

CURRENT METAR :
  • 280053Z 24007KT 10SM SCT060 12/08 A2984 RMK AO1 SLP106 T01170083

EXPIRED METARs :
  • 272353Z 22006KT 10SM OVC060 12/09 A2984 RMK AO1 SLP104 T01170094 10156 20117 51004
  • 272253Z 25004KT 10SM OVC055 13/07 A2983 RMK AO1 SLP102 T01330072

TAF KCRE
Valid from the 28 at 00:00 until the 29 at 00:00 UTC


272320Z 2800/2824 25006KT P6SM BKN050
FM280200 28007KT P6SM VCSH BKN040
FM280400 31007KT P6SM FEW150
FM280900 34007KT P6SM SKC



MET'MAP, your aeronautical weather chart ! - Copyright ORBIFLY December 2007 - Disclaimer

ORBIFLY MET'MAP TEAM :

Programming & Development : Alexandra Zaïnal
Concept & original design : Baudouin d'Aumeries
Assistance for programming : Marc-Olivier Méhu
Technical & hardware support : Manuel Goepfert

Contact : metmap@orbifly.com




SOURCES & CREDITS :

   NOAA       Earth
Advisory